Metar z połowy godziny Komunikat METAR ze strony awiacja.imgw.pl Metar G30 EPCE METAR EPCE 170900Z 16007KT 110V220 CAVOK 24/15 Q1018 RMK 241 056 0/0 =